Time;durP1;ratioP1;P1;durP2;ratioP2;P2;SDS_P1;SDS_P2;PMS_P1;PMS_P2;Temp;Humidity;BMP_temperature;BMP_pressure;BME280_temperature;BME280_humidity;BME280_pressure;Samples;Min_cycle;Max_cycle;Signal;HPM_P1;HPM_P2
2022/01/11 00:03:10;;;;;;;;;;;;;;;0.71;92.24;97409.59;10421539;28;20115;-58
2022/01/11 00:08:11;;;;;;;2.60;2.10;;;;;;;0.40;92.15;97408.56;10402326;28;19919;-58
2022/01/11 00:13:10;;;;;;;20.67;10.32;;;;;;;0.12;92.61;97426.31;10421076;28;20555;-58
2022/01/11 00:18:09;;;;;;;59.92;31.38;;;;;;;-0.13;92.68;97425.47;10420232;28;20487;-58
2022/01/11 00:28:08;;;;;;;33.45;20.48;;;;;;;-0.35;93.25;97417.88;10419922;28;20065;-58
2022/01/11 00:33:12;;;;;;;16.55;10.43;;;;;;;-0.16;93.17;97443.19;10402469;28;20127;-58
2022/01/11 00:38:17;;;;;;;11.10;5.60;;;;;;;-0.25;93.49;97442.88;10416071;28;20068;-58
2022/01/11 00:43:17;;;;;;;10.55;5.32;;;;;;;-0.48;93.83;97450.56;10416895;28;20128;-58
2022/01/11 00:48:16;;;;;;;8.57;4.32;;;;;;;-0.59;93.93;97451.84;10416514;28;20475;-58
2022/01/11 00:53:16;;;;;;;12.70;5.90;;;;;;;-0.65;94.16;97455.03;10413551;28;20056;-58
2022/01/11 00:58:19;;;;;;;7.15;4.10;;;;;;;-0.70;94.52;97459.06;10412983;28;20132;-58
2022/01/11 01:03:19;;;;;;;6.80;3.38;;;;;;;-0.81;94.84;97466.31;10415814;28;20068;-58
2022/01/11 01:08:19;;;;;;;9.90;5.88;;;;;;;-0.73;94.45;97464.06;10417700;28;20070;-58
2022/01/11 01:13:21;;;;;;;15.20;7.45;;;;;;;-0.86;95.29;97474.56;10412136;28;20849;-58
2022/01/11 01:18:28;;;;;;;8.70;5.50;;;;;;;-0.88;94.75;97474.53;10408471;28;20783;-58
2022/01/11 01:23:27;;;;;;;18.30;9.95;;;;;;;-0.90;95.10;97488.00;10409672;28;20064;-58
2022/01/11 01:28:26;;;;;;;10.35;6.25;;;;;;;-0.89;95.15;97495.69;10418834;28;20028;-58
2022/01/11 01:33:25;;;;;;;19.38;11.57;;;;;;;-0.88;95.26;97482.16;10417902;28;20079;-58
2022/01/11 01:38:25;;;;;;;14.98;8.90;;;;;;;-0.92;95.22;97499.81;10417292;28;20067;-58
2022/01/11 01:43:24;;;;;;;19.30;12.52;;;;;;;-0.85;94.97;97497.56;10417889;28;20064;-58
2022/01/11 01:48:23;;;;;;;19.13;12.32;;;;;;;-1.06;94.93;97461.94;10417223;28;20075;-58
2022/01/11 01:53:23;;;;;;;13.48;9.23;;;;;;;-1.04;95.38;97475.59;10414003;28;20534;-58
2022/01/11 01:58:22;;;;;;;13.15;7.88;;;;;;;-0.91;94.69;97506.63;10418436;28;20170;-58
2022/01/11 02:03:26;;;;;;;11.63;7.43;;;;;;;-0.90;94.96;97505.84;10418151;28;20813;-58
2022/01/11 02:08:25;;;;;;;12.10;8.40;;;;;;;-0.86;94.64;97506.03;10393577;28;20060;-58
2022/01/11 02:13:24;;;;;;;18.42;10.65;;;;;;;-0.77;94.78;97505.50;10417904;28;20063;-58
2022/01/11 02:18:26;;;;;;;43.22;29.90;;;;;;;-0.68;94.56;97515.19;10408002;28;20086;-58
2022/01/11 02:23:27;;;;;;;28.77;19.02;;;;;;;-0.66;94.05;97521.22;10375878;28;20076;-58
2022/01/11 02:28:28;;;;;;;15.32;8.57;;;;;;;-0.70;94.42;97522.75;10375256;28;20075;-58
2022/01/11 02:33:37;;;;;;;13.32;7.28;;;;;;;-0.78;94.22;97523.28;10384132;28;20072;-58
2022/01/11 02:38:36;;;;;;;70.00;45.60;;;;;;;-0.99;94.84;97523.31;10416421;28;20080;-58
2022/01/11 02:43:39;;;;;;;;;;;;;;;-0.99;95.40;97536.03;10416977;28;20154;-58
2022/01/11 02:48:38;;;;;;;8.82;5.20;;;;;;;-0.93;94.85;97526.97;10401699;28;19959;-58
2022/01/11 02:53:45;;;;;;;12.68;7.07;;;;;;;-1.01;95.38;97534.28;10375372;28;20043;-58
2022/01/11 02:58:44;;;;;;;31.48;20.88;;;;;;;-1.04;95.54;97534.16;10375639;28;20087;-58
2022/01/11 03:03:44;;;;;;;13.88;9.77;;;;;;;-1.14;95.61;97534.63;10374889;28;20068;-58
2022/01/11 03:08:46;;;;;;;8.52;4.88;;;;;;;-1.19;96.33;97537.75;10374416;28;20076;-58
2022/01/11 03:13:45;;;;;;;8.32;4.72;;;;;;;-1.18;95.54;97539.50;10398177;28;20523;-57
2022/01/11 03:18:45;;;;;;;9.63;4.90;;;;;;;-1.28;95.82;97550.97;10415148;28;20507;-57
2022/01/11 03:23:44;;;;;;;9.13;5.70;;;;;;;-1.33;96.30;97550.81;10415544;28;20490;-57
2022/01/11 03:28:43;;;;;;;9.20;4.90;;;;;;;-1.35;96.32;97559.16;10413637;28;20380;-57
2022/01/11 03:33:42;;;;;;;10.98;5.38;;;;;;;-1.41;96.70;97564.88;10414699;28;20046;-57
2022/01/11 03:38:41;;;;;;;10.30;5.80;;;;;;;-1.35;96.67;97575.31;10413960;28;20060;-57
2022/01/11 03:43:41;;;;;;;9.68;5.32;;;;;;;-1.45;97.03;97571.47;10409845;28;20068;-57
2022/01/11 03:48:40;;;;;;;13.30;7.88;;;;;;;-1.42;96.92;97573.31;10414015;28;20067;-57
2022/01/11 03:53:51;;;;;;;15.23;8.63;;;;;;;-1.48;97.32;97568.81;10414340;28;20106;-57
2022/01/11 03:58:51;;;;;;;24.95;14.93;;;;;;;-1.41;97.53;97587.78;10413516;28;20158;-57
2022/01/11 04:03:50;;;;;;;17.25;9.25;;;;;;;-1.29;96.73;97603.56;10413989;28;20064;-57
2022/01/11 04:08:49;;;;;;;18.50;10.55;;;;;;;-1.25;96.30;97602.03;10414147;28;20113;-57
2022/01/11 04:13:48;;;;;;;14.73;8.00;;;;;;;-1.24;96.57;97603.75;10372376;28;20041;-57
2022/01/11 04:18:47;;;;;;;12.05;6.03;;;;;;;-1.41;96.72;97620.00;10372827;28;20444;-57
2022/01/11 04:23:46;;;;;;;9.85;5.55;;;;;;;-1.30;96.16;97624.75;10373448;28;20692;-57
2022/01/11 04:28:45;;;;;;;11.20;6.28;;;;;;;-1.40;97.07;97637.00;10382608;28;20072;-58
2022/01/11 04:33:45;;;;;;;11.20;6.82;;;;;;;-1.42;97.17;97636.94;10379979;28;20049;-58
2022/01/11 04:38:44;;;;;;;9.15;5.95;;;;;;;-1.48;97.26;97642.63;10379537;28;20523;-58
2022/01/11 04:43:43;;;;;;;9.60;6.05;;;;;;;-1.50;97.05;97656.94;10380096;28;20488;-58
2022/01/11 04:48:42;;;;;;;13.82;7.07;;;;;;;-1.39;96.48;97665.06;10380116;28;20539;-58
2022/01/11 04:53:41;;;;;;;10.60;6.07;;;;;;;-1.47;97.03;97669.81;10390308;28;20087;-58
2022/01/11 04:58:40;;;;;;;9.18;5.72;;;;;;;-1.54;96.78;97669.47;10416605;28;20060;-58
2022/01/11 05:03:39;;;;;;;10.07;6.60;;;;;;;-1.54;96.81;97675.44;10396374;28;20048;-58
2022/01/11 05:08:38;;;;;;;8.30;5.10;;;;;;;-1.50;97.06;97672.22;10404461;28;20064;-58
2022/01/11 05:13:37;;;;;;;7.82;4.78;;;;;;;-1.47;97.12;97689.28;10378019;28;20057;-58
2022/01/11 05:18:37;;;;;;;7.60;4.15;;;;;;;-1.51;96.58;97674.72;10378220;28;20029;-58
2022/01/11 05:23:36;;;;;;;11.45;5.90;;;;;;;-1.55;96.72;97688.09;10380887;28;20445;-58
2022/01/11 05:28:36;;;;;;;10.93;6.00;;;;;;;-1.56;96.49;97701.59;10377950;28;20067;-58
2022/01/11 05:33:35;;;;;;;13.23;7.25;;;;;;;-1.56;96.38;97711.78;10399167;28;20072;-58
2022/01/11 05:38:34;;;;;;;14.25;9.27;;;;;;;-1.56;96.39;97717.75;10418703;28;20032;-58
2022/01/11 05:43:35;;;;;;;17.90;12.20;;;;;;;-1.52;96.24;97722.16;10414123;28;20033;-58
2022/01/11 05:48:34;;;;;;;13.93;9.20;;;;;;;-1.55;96.77;97724.56;10416617;28;20479;-58
2022/01/11 05:53:33;;;;;;;;;;;;;;;-1.52;96.75;97728.94;10417027;28;20518;-58
2022/01/11 05:58:32;;;;;;;14.63;8.10;;;;;;;-1.72;96.44;97713.63;10410342;28;19951;-59
2022/01/11 06:03:31;;;;;;;18.77;9.80;;;;;;;-1.61;96.78;97728.50;10417494;28;20066;-58
2022/01/11 06:08:30;;;;;;;32.72;17.17;;;;;;;-1.49;96.35;97744.38;10411058;28;20049;-59
2022/01/11 06:13:29;;;;;;;;;;;;;;;-1.47;96.55;97750.38;10415033;28;20044;-59
2022/01/11 06:18:29;;;;;;;53.15;30.67;;;;;;;-1.39;96.22;97756.69;10395927;28;20003;-58
2022/01/11 06:23:29;;;;;;;36.53;21.30;;;;;;;-1.33;95.68;97769.72;10415511;28;20060;-59
2022/01/11 06:28:28;;;;;;;40.58;22.70;;;;;;;-1.64;96.01;97755.56;10402217;28;20492;-59
2022/01/11 06:33:27;;;;;;;27.90;16.10;;;;;;;-1.58;96.27;97787.19;10392647;28;20476;-59
2022/01/11 06:38:26;;;;;;;32.05;19.33;;;;;;;-1.57;96.05;97796.56;10385102;28;20487;-58
2022/01/11 06:43:25;;;;;;;35.42;21.27;;;;;;;-1.54;96.02;97794.16;10414705;28;20479;-59
2022/01/11 06:48:24;;;;;;;22.92;15.48;;;;;;;-1.56;95.76;97803.38;10413466;28;20487;-59
2022/01/11 06:53:24;;;;;;;15.88;9.32;;;;;;;-1.62;95.37;97811.59;10412075;28;20048;-59
2022/01/11 06:58:23;;;;;;;18.15;11.18;;;;;;;-1.58;95.14;97815.19;10408075;28;20159;-59
2022/01/11 07:03:22;;;;;;;23.77;16.05;;;;;;;-1.59;95.02;97833.78;10372723;28;20068;-58
2022/01/11 07:08:21;;;;;;;52.47;33.55;;;;;;;-1.65;95.89;97836.91;10413469;28;20085;-59
2022/01/11 07:13:20;;;;;;;58.67;42.75;;;;;;;-1.57;95.46;97842.38;10414642;28;20056;-59
2022/01/11 07:18:19;;;;;;;15.65;9.98;;;;;;;-1.62;94.95;97847.22;10428238;28;20815;-59
2022/01/11 07:23:18;;;;;;;20.92;14.85;;;;;;;-1.55;95.57;97843.31;10412038;28;20548;-58
2022/01/11 07:28:17;;;;;;;16.98;10.35;;;;;;;-1.66;94.72;97848.78;10374258;28;20048;-59
2022/01/11 07:33:16;;;;;;;16.17;11.05;;;;;;;-1.68;94.67;97842.72;10373413;28;20077;-59
2022/01/11 07:38:15;;;;;;;18.38;12.55;;;;;;;-1.73;94.68;97861.09;10382426;28;20032;-59
2022/01/11 07:43:14;;;;;;;20.02;12.93;;;;;;;-1.74;93.92;97867.00;10408784;28;20497;-59
2022/01/11 07:48:13;;;;;;;21.05;12.52;;;;;;;-1.93;94.14;97833.03;10416659;28;20511;-59
2022/01/11 07:53:12;;;;;;;21.83;14.50;;;;;;;-1.71;94.39;97870.53;10393782;28;20048;-59
2022/01/11 07:58:12;;;;;;;18.20;10.80;;;;;;;-1.76;94.62;97882.19;10372257;28;20040;-59
2022/01/11 08:03:11;;;;;;;24.00;15.90;;;;;;;-1.74;94.93;97885.66;10381313;28;20132;-59
2022/01/11 08:08:10;;;;;;;16.20;10.02;;;;;;;-1.78;94.49;97883.75;10420971;28;20052;-59
2022/01/11 08:13:10;;;;;;;15.90;10.43;;;;;;;-1.83;93.96;97890.31;10407383;28;20040;-59
2022/01/11 08:18:09;;;;;;;35.08;19.13;;;;;;;-1.71;94.38;97900.22;10420535;28;20076;-59
2022/01/11 08:23:08;;;;;;;23.42;11.48;;;;;;;-1.84;93.63;97908.91;10414119;28;20070;-59
2022/01/11 08:28:07;;;;;;;59.63;25.95;;;;;;;-1.91;93.33;97914.50;10419791;28;20032;-59
2022/01/11 08:33:09;;;;;;;30.02;15.45;;;;;;;-1.93;93.97;97924.59;10401857;28;20049;-59
2022/01/11 08:38:08;;;;;;;18.63;9.63;;;;;;;-2.01;93.98;97922.44;10387720;28;20071;-59
2022/01/11 08:43:07;;;;;;;31.50;18.35;;;;;;;-2.00;94.05;97926.75;10409362;28;20068;-59
2022/01/11 08:48:06;;;;;;;30.02;16.48;;;;;;;-2.11;94.02;97924.50;10409991;28;20771;-59
2022/01/11 08:53:06;;;;;;;37.15;19.73;;;;;;;-2.02;93.85;97935.97;10420756;28;20056;-59
2022/01/11 08:58:05;;;;;;;21.65;12.63;;;;;;;-2.13;94.20;97935.41;10417625;28;20067;-59
2022/01/11 09:03:04;;;;;;;19.30;13.65;;;;;;;-2.42;95.05;97928.81;10403333;28;20029;-59
2022/01/11 09:08:03;;;;;;;105.25;56.63;;;;;;;-2.27;94.43;97949.94;10378962;28;20040;-59
2022/01/11 09:13:03;;;;;;;24.42;15.77;;;;;;;-2.17;94.17;97953.81;10387426;28;20052;-59
2022/01/11 09:18:02;;;;;;;40.10;23.88;;;;;;;-2.30;94.47;97942.16;10409420;28;20068;-59
2022/01/11 09:23:02;;;;;;;36.47;21.73;;;;;;;-2.27;94.43;97944.84;10418931;28;20076;-59
2022/01/11 09:28:02;;;;;;;24.80;15.32;;;;;;;-2.27;94.04;97955.88;10418362;28;20565;-59
2022/01/11 09:33:01;;;;;;;26.10;15.88;;;;;;;-2.35;93.82;97966.47;10401130;28;20076;-59
2022/01/11 09:38:00;;;;;;;29.63;21.63;;;;;;;-2.37;94.41;97966.38;10407202;28;20032;-59
2022/01/11 09:42:59;;;;;;;29.55;19.35;;;;;;;-2.50;94.63;97969.94;10413559;28;20053;-60
2022/01/11 09:47:58;;;;;;;;;;;;;;;-2.45;95.01;97979.47;10413375;28;20498;-60
2022/01/11 09:52:57;;;;;;;37.30;22.95;;;;;;;-2.32;94.75;97966.63;10393372;28;20662;-60
2022/01/11 09:57:56;;;;;;;41.53;27.08;;;;;;;-2.37;94.96;97981.63;10397767;28;20079;-60
2022/01/11 10:02:55;;;;;;;26.52;16.33;;;;;;;-2.46;95.05;97983.69;10404169;28;20024;-60
2022/01/11 10:07:54;;;;;;;29.90;16.05;;;;;;;-2.36;94.19;97982.50;10410995;28;20048;-60
2022/01/11 10:13:04;;;;;;;27.38;14.63;;;;;;;-2.34;93.93;97984.31;10406295;28;20040;-61
2022/01/11 10:18:03;;;;;;;38.08;24.25;;;;;;;-2.31;94.00;97983.63;10398435;28;20065;-61
2022/01/11 10:23:07;;;;;;;35.20;22.35;;;;;;;-2.20;93.93;97985.06;10394869;28;20064;-61
2022/01/11 10:28:06;;;;;;;46.00;27.25;;;;;;;-2.21;94.54;97982.44;10379474;28;20068;-61
2022/01/11 10:33:08;;;;;;;39.95;24.13;;;;;;;-2.23;94.21;97956.94;10395175;28;20079;-61
2022/01/11 10:38:07;;;;;;;27.35;15.52;;;;;;;-2.15;93.16;97972.56;10414816;28;20056;-60
2022/01/11 10:43:15;;;;;;;35.92;18.65;;;;;;;-2.15;93.24;97998.00;10382412;28;20120;-61
2022/01/11 10:48:21;;;;;;;62.97;34.60;;;;;;;-2.11;92.49;98005.88;10404228;28;20090;-62
2022/01/11 10:53:38;;;;;;;47.78;26.38;;;;;;;-2.03;91.64;98007.94;10413036;28;20721;-62
2022/01/11 10:58:37;;;;;;;48.20;27.75;;;;;;;-2.09;92.47;98000.88;10391444;28;20067;-62
2022/01/11 11:03:38;;;;;;;38.58;22.70;;;;;;;-2.34;91.91;97975.81;10422392;28;20039;-62
2022/01/11 11:08:48;;;;;;;63.30;34.17;;;;;;;-2.30;92.70;98011.66;10411484;28;20071;-62
2022/01/11 11:13:51;;;;;;;42.28;21.50;;;;;;;-2.32;92.76;98012.38;10414971;28;20051;-61
2022/01/11 11:18:57;;;;;;;45.78;27.52;;;;;;;-2.34;92.86;98004.66;10410070;28;20071;-61
2022/01/11 11:24:10;;;;;;;37.67;22.15;;;;;;;-2.17;92.47;98017.38;10414240;28;20107;-61
2022/01/11 11:29:10;;;;;;;48.58;28.38;;;;;;;-2.22;92.33;98027.31;10413607;28;20067;-60
2022/01/11 11:34:10;;;;;;;38.08;22.40;;;;;;;-2.59;92.42;98010.09;10403931;28;20545;-61
2022/01/11 11:39:19;;;;;;;40.92;22.42;;;;;;;-2.63;92.75;98033.59;10386917;28;20061;-61
2022/01/11 11:44:21;;;;;;;37.13;20.65;;;;;;;-2.65;93.01;98025.00;10408332;28;20048;-61
2022/01/11 11:49:43;;;;;;;33.33;17.25;;;;;;;-2.70;92.59;98029.81;10380781;28;20068;-61
2022/01/11 11:54:55;;;;;;;44.08;26.27;;;;;;;-2.72;92.47;98015.28;10398852;28;20056;-61
2022/01/11 11:59:55;;;;;;;70.68;35.97;;;;;;;-2.71;92.24;98040.78;10406936;28;20053;-60
2022/01/11 12:04:54;;;;;;;32.15;16.63;;;;;;;-2.73;91.35;98046.59;10372290;28;20068;-61
2022/01/11 12:09:53;;;;;;;;;;;;;;;-2.80;91.74;98049.56;10375393;28;20789;-61
2022/01/11 12:14:52;;;;;;;53.80;29.10;;;;;;;-2.70;91.44;98055.22;10394217;28;20299;-61
2022/01/11 12:19:53;;;;;;;74.72;33.95;;;;;;;-2.80;91.15;98062.28;10388994;28;20055;-61
2022/01/11 12:24:55;;;;;;;30.92;18.95;;;;;;;-2.57;91.17;98059.34;10386472;28;20448;-61
2022/01/11 12:30:08;;;;;;;32.65;17.90;;;;;;;-2.54;90.51;98063.72;10404360;28;20091;-61
2022/01/11 12:35:10;;;;;;;26.85;15.23;;;;;;;-2.73;90.44;98057.59;10408159;28;21570;-61
2022/01/11 12:40:31;;;;;;;34.17;22.00;;;;;;;-2.68;90.74;98055.31;10398796;28;20064;-61
2022/01/11 12:46:08;;;;;;;29.02;16.38;;;;;;;-2.61;90.37;98074.31;10399574;28;20056;-60
2022/01/11 12:51:08;;;;;;;29.65;18.13;;;;;;;-2.50;89.81;98043.63;10393553;28;20063;-60
2022/01/11 12:56:07;;;;;;;28.67;17.13;;;;;;;-2.06;89.33;98084.94;10401311;28;20068;-60
2022/01/11 13:01:20;;;;;;;28.42;17.73;;;;;;;-1.91;89.29;98095.06;10390556;28;20137;-60
2022/01/11 13:06:19;;;;;;;28.90;17.80;;;;;;;-2.03;88.43;98068.97;10383494;28;20076;-60
2022/01/11 13:11:20;;;;;;;31.88;18.58;;;;;;;-1.92;87.83;98098.38;10414520;28;20056;-60
2022/01/11 13:16:30;;;;;;;28.50;16.88;;;;;;;-2.11;87.68;98088.91;10419357;28;20059;-61
2022/01/11 13:21:30;;;;;;;29.98;16.33;;;;;;;-2.09;87.27;98121.25;10398507;28;20063;-60
2022/01/11 13:26:30;;;;;;;27.42;14.50;;;;;;;-2.57;87.47;98097.44;10415618;28;20478;-60
2022/01/11 13:31:32;;;;;;;28.55;15.57;;;;;;;-2.44;87.43;98126.94;10415862;28;20079;-60
2022/01/11 13:36:34;;;;;;;28.90;15.60;;;;;;;-2.55;87.75;98128.00;10406761;28;20086;-60
2022/01/11 13:41:45;;;;;;;27.70;15.35;;;;;;;-2.74;87.76;98118.47;10407024;28;20056;-61
2022/01/11 13:46:51;;;;;;;36.20;19.67;;;;;;;-2.73;87.83;98135.47;10417783;28;20059;-60
2022/01/11 13:52:00;;;;;;;32.00;18.23;;;;;;;-2.83;87.69;98145.88;10404591;28;20495;-60
2022/01/11 13:57:01;;;;;;;;;;;;;;;-2.91;88.25;98148.84;10376783;28;20931;-60
2022/01/11 14:02:05;;;;;;;24.30;13.10;;;;;;;-3.09;87.95;98149.47;10377823;28;19955;-60
2022/01/11 14:07:13;;;;;;;31.55;17.90;;;;;;;-3.03;89.06;98159.97;10394160;28;20064;-60
2022/01/11 14:12:22;;;;;;;18.90;11.00;;;;;;;-3.11;88.51;98154.44;10413140;28;20052;-60
2022/01/11 14:17:24;;;;;;;40.47;22.95;;;;;;;-3.21;89.12;98172.47;10413055;28;20451;-60
2022/01/11 14:22:39;;;;;;;33.33;17.70;;;;;;;-3.01;89.13;98176.19;10376656;28;20079;-60
2022/01/11 14:27:38;;;;;;;34.90;18.92;;;;;;;-2.96;88.81;98180.72;10375516;28;20072;-60
2022/01/11 14:32:54;;;;;;;27.00;15.60;;;;;;;-3.10;88.74;98186.66;10409879;28;20076;-60
2022/01/11 14:38:03;;;;;;;40.03;20.73;;;;;;;-3.13;88.60;98191.56;10405872;28;20060;-61
2022/01/11 14:43:08;;;;;;;67.38;31.52;;;;;;;-3.19;88.92;98203.88;10412577;28;20063;-60
2022/01/11 14:48:07;;;;;;;33.55;17.05;;;;;;;-3.34;88.95;98192.03;10415479;28;20682;-61
2022/01/11 14:53:11;;;;;;;69.30;36.13;;;;;;;-3.20;89.06;98210.63;10396204;28;20063;-61
2022/01/11 14:58:11;;;;;;;77.88;40.72;;;;;;;-3.07;88.84;98207.16;10402442;28;20563;-61
2022/01/11 15:03:10;;;;;;;81.35;44.30;;;;;;;-3.25;89.07;98203.50;10401741;28;20071;-61
2022/01/11 15:08:10;;;;;;;45.25;27.67;;;;;;;-2.88;88.57;98216.72;10402729;28;20139;-60
2022/01/11 15:13:20;;;;;;;60.50;30.45;;;;;;;-3.16;88.96;98202.38;10387293;28;20056;-60
2022/01/11 15:18:19;;;;;;;60.65;32.03;;;;;;;-3.13;88.95;98237.25;10372865;28;20467;-60
2022/01/11 15:23:18;;;;;;;112.10;50.47;;;;;;;-3.08;89.24;98243.50;10373963;28;20505;-60
2022/01/11 15:28:17;;;;;;;40.03;24.25;;;;;;;-3.38;89.77;98233.22;10372526;28;20029;-59
2022/01/11 15:33:16;;;;;;;67.72;39.75;;;;;;;-3.35;89.92;98230.00;10372483;28;20080;-59
2022/01/11 15:38:15;;;;;;;58.65;31.60;;;;;;;-3.10;89.09;98252.66;10373787;28;20419;-59
2022/01/11 15:43:14;;;;;;;42.92;24.80;;;;;;;-3.07;89.18;98260.47;10396044;28;20039;-58
2022/01/11 15:48:13;;;;;;;52.08;30.55;;;;;;;-3.23;89.10;98260.31;10412667;28;20056;-59
2022/01/11 15:53:12;;;;;;;62.88;36.72;;;;;;;-3.27;89.42;98255.81;10390570;28;20029;-59
2022/01/11 15:58:12;;;;;;;68.05;40.65;;;;;;;-3.28;89.85;98264.25;10381004;28;20016;-59
2022/01/11 16:03:11;;;;;;;59.55;33.75;;;;;;;-3.29;89.33;98270.13;10412349;28;20060;-58
2022/01/11 16:08:11;;;;;;;61.08;34.00;;;;;;;-3.36;89.59;98274.81;10373496;28;20025;-59
2022/01/11 16:13:13;;;;;;;60.40;33.85;;;;;;;-3.54;89.55;98276.19;10381160;28;20497;-59
2022/01/11 16:18:12;;;;;;;41.08;23.35;;;;;;;-3.57;90.14;98296.31;10402738;28;20061;-59
2022/01/11 16:23:12;;;;;;;52.75;28.50;;;;;;;-3.61;90.24;98304.50;10373528;28;20064;-59
2022/01/11 16:28:11;;;;;;;49.80;25.80;;;;;;;-3.65;90.27;98315.22;10379769;28;20076;-59
2022/01/11 16:33:11;;;;;;;;;;;;;;;-3.68;90.53;98326.06;10393801;28;20080;-59
2022/01/11 16:38:11;;;;;;;45.58;23.25;;;;;;;-3.75;91.18;98328.97;10411024;28;19951;-61
2022/01/11 16:43:15;;;;;;;45.17;24.88;;;;;;;-3.67;90.37;98342.13;10420589;28;20063;-59
2022/01/11 16:48:14;;;;;;;43.55;24.25;;;;;;;-3.80;90.64;98325.28;10396005;28;20072;-59
2022/01/11 16:53:17;;;;;;;55.00;29.48;;;;;;;-3.87;89.70;98323.13;10379060;28;20056;-61
2022/01/11 16:58:17;;;;;;;45.35;22.48;;;;;;;-3.84;89.92;98343.59;10379131;28;20471;-59
2022/01/11 17:03:16;;;;;;;40.10;21.15;;;;;;;-4.18;90.23;98304.28;10379689;28;20068;-59
2022/01/11 17:08:16;;;;;;;29.17;15.27;;;;;;;-3.94;89.91;98352.28;10418879;28;20060;-59
2022/01/11 17:13:15;;;;;;;52.97;29.98;;;;;;;-4.00;90.46;98345.16;10419408;28;20071;-59
2022/01/11 17:18:14;;;;;;;47.92;24.70;;;;;;;-3.92;90.50;98348.19;10402084;28;20930;-59
2022/01/11 17:23:13;;;;;;;42.90;22.25;;;;;;;-3.98;90.10;98320.75;10410752;28;20066;-59
2022/01/11 17:28:12;;;;;;;35.75;20.42;;;;;;;-3.78;89.73;98355.03;10418020;28;20025;-59
2022/01/11 17:33:11;;;;;;;44.75;21.23;;;;;;;-3.66;89.25;98365.06;10390283;28;20084;-59
2022/01/11 17:38:10;;;;;;;34.83;17.10;;;;;;;-3.70;88.73;98369.84;10390183;28;20052;-59
2022/01/11 17:43:09;;;;;;;44.70;22.40;;;;;;;-3.77;89.38;98374.53;10417633;28;20089;-59
2022/01/11 17:48:08;;;;;;;55.40;27.67;;;;;;;-3.77;88.74;98374.53;10394243;28;20094;-59
2022/01/11 17:53:07;;;;;;;50.00;24.75;;;;;;;-3.83;89.12;98381.75;10376064;28;20064;-59
2022/01/11 17:58:07;;;;;;;36.90;17.88;;;;;;;-3.95;88.87;98360.69;10375424;28;20524;-59
2022/01/11 18:03:06;;;;;;;45.40;20.63;;;;;;;-3.83;89.57;98389.34;10375391;28;20479;-59
2022/01/11 18:08:05;;;;;;;40.33;19.92;;;;;;;-3.86;89.43;98391.66;10374775;28;20653;-61
2022/01/11 18:13:04;;;;;;;49.35;23.77;;;;;;;-3.79;89.26;98396.38;10381041;28;20063;-59
2022/01/11 18:18:04;;;;;;;43.78;21.83;;;;;;;-3.78;89.47;98405.75;10417098;28;20067;-62
2022/01/11 18:23:03;;;;;;;52.72;27.13;;;;;;;-3.84;89.12;98401.91;10401753;28;20079;-61
2022/01/11 18:28:03;;;;;;;44.42;21.17;;;;;;;-3.87;89.65;98400.06;10375272;28;20087;-59
2022/01/11 18:33:04;;;;;;;42.83;22.52;;;;;;;-4.03;89.53;98395.63;10375441;28;20543;-59
2022/01/11 18:38:04;;;;;;;38.85;19.17;;;;;;;-4.10;89.73;98383.34;10374933;28;20064;-61
2022/01/11 18:43:04;;;;;;;49.58;23.48;;;;;;;-4.16;89.67;98375.34;10408216;28;20052;-59
2022/01/11 18:48:04;;;;;;;43.67;20.17;;;;;;;-4.14;89.81;98413.44;10415803;28;20068;-59
2022/01/11 18:53:04;;;;;;;45.63;20.60;;;;;;;-4.02;89.67;98420.22;10395953;28;20682;-59
2022/01/11 18:58:03;;;;;;;47.20;21.00;;;;;;;-4.13;89.05;98383.16;10372431;28;20067;-59
2022/01/11 19:03:03;;;;;;;41.88;20.42;;;;;;;-3.87;89.05;98427.97;10375048;28;20025;-59
2022/01/11 19:08:03;;;;;;;40.88;19.23;;;;;;;-3.92;89.15;98439.47;10374948;28;20061;-59
2022/01/11 19:13:03;;;;;;;50.95;24.00;;;;;;;-3.91;89.06;98436.13;10373635;28;20052;-59
2022/01/11 19:18:02;;;;;;;;;;;;;;;-3.95;89.33;98441.81;10409810;28;20464;-59
2022/01/11 19:23:00;;;;;;;56.05;25.45;;;;;;;-4.01;89.07;98441.38;10413005;28;20315;-59
2022/01/11 19:28:01;;;;;;;30.00;14.23;;;;;;;-3.93;89.08;98455.44;10414232;28;20032;-59
2022/01/11 19:33:01;;;;;;;72.28;32.45;;;;;;;-4.00;89.27;98454.16;10413216;28;20086;-59
2022/01/11 19:38:00;;;;;;;56.63;25.38;;;;;;;-4.01;89.10;98452.38;10413263;28;20486;-59
2022/01/11 19:43:03;;;;;;;;;;;;;;;-3.99;89.07;98447.44;10413958;28;20496;-59
2022/01/11 19:48:02;;;;;;;54.83;25.02;;;;;;;-4.00;88.97;98449.09;10395652;28;19964;-59
2022/01/11 19:53:00;;;;;;;;;;;;;;;-4.09;88.97;98457.72;10371991;28;20132;-59
2022/01/11 19:57:59;;;;;;;58.50;25.73;;;;;;;-4.22;89.18;98433.22;10372587;28;19912;-59
2022/01/11 20:03:01;;;;;;;53.28;24.63;;;;;;;-3.96;89.22;98470.44;10399305;28;20036;-59
2022/01/11 20:08:00;;;;;;;53.83;23.73;;;;;;;-3.85;89.06;98463.56;10399187;28;20068;-59
2022/01/11 20:13:00;;;;;;;47.95;23.58;;;;;;;-3.78;89.05;98461.53;10395454;28;20106;-59
2022/01/11 20:17:59;;;;;;;48.35;20.92;;;;;;;-3.82;88.29;98454.50;10418783;28;20064;-59
2022/01/11 20:28:23;;;;;;;45.20;20.55;;;;;;;-3.16;87.95;98480.75;10438469;28;20063;-59
2022/01/11 20:33:22;;;;;;;46.70;22.77;;;;;;;-3.11;87.63;98484.44;10461317;28;20044;-59
2022/01/11 20:38:21;;;;;;;44.13;19.77;;;;;;;-3.46;87.96;98427.25;10424387;28;20518;-59
2022/01/11 20:43:21;;;;;;;41.00;18.08;;;;;;;-3.06;87.73;98480.56;10420676;28;20784;-59
2022/01/11 20:48:20;;;;;;;38.72;17.73;;;;;;;-2.91;87.04;98480.66;10401521;28;20094;-59
2022/01/11 20:53:20;;;;;;;58.58;29.33;;;;;;;-3.11;86.46;98481.91;10404393;28;20068;-59
2022/01/11 20:58:22;;;;;;;38.30;17.02;;;;;;;-3.33;86.45;98477.13;10409327;28;20052;-59
2022/01/11 21:03:21;;;;;;;37.65;18.13;;;;;;;-3.21;86.63;98471.97;10381631;28;20064;-59
2022/01/11 21:08:22;;;;;;;38.00;19.20;;;;;;;-3.31;86.38;98484.84;10378229;28;20061;-59
2022/01/11 21:13:25;;;;;;;37.08;15.73;;;;;;;-3.44;86.26;98486.56;10377263;28;20068;-59
2022/01/11 21:23:42;;;;;;;38.08;15.75;;;;;;;-3.84;86.35;98478.84;10396598;28;20060;-59
2022/01/11 21:28:42;;;;;;;37.10;15.88;;;;;;;-3.74;86.44;98508.25;10419542;28;20079;-59
2022/01/11 21:33:42;;;;;;;;;;;;;;;-3.76;86.58;98504.75;10418996;28;20068;-59
2022/01/11 21:38:41;;;;;;;31.58;14.23;;;;;;;-4.07;86.33;98478.97;10418269;28;19962;-59
2022/01/11 21:43:41;;;;;;;40.67;17.50;;;;;;;-3.87;87.08;98511.63;10417702;28;20464;-61
2022/01/11 21:48:40;;;;;;;32.58;13.25;;;;;;;-3.94;86.94;98517.06;10413702;28;20487;-58
2022/01/11 21:53:40;;;;;;;42.60;18.98;;;;;;;-3.99;88.26;98520.94;10377828;28;20447;-59
2022/01/11 21:58:39;;;;;;;35.80;17.73;;;;;;;-4.07;88.48;98522.06;10376690;28;20504;-59
2022/01/11 22:03:38;;;;;;;40.88;16.08;;;;;;;-4.12;88.44;98518.34;10375552;28;20044;-58
2022/01/11 22:08:40;;;;;;;41.78;18.15;;;;;;;-4.19;87.93;98528.06;10376689;28;20055;-59
2022/01/11 22:13:48;;;;;;;50.03;22.48;;;;;;;-4.16;89.08;98511.31;10376780;28;20067;-58
2022/01/11 22:18:47;;;;;;;38.95;16.27;;;;;;;-4.44;89.08;98524.63;10397919;28;20076;-59
2022/01/11 22:23:45;;;;;;;47.58;19.42;;;;;;;-4.35;89.98;98509.16;10394249;28;20028;-59
2022/01/11 22:28:44;;;;;;;44.47;22.00;;;;;;;-4.15;89.31;98515.63;10416464;28;20038;-59
2022/01/11 22:33:43;;;;;;;40.00;19.02;;;;;;;-4.24;88.77;98519.25;10416142;28;20472;-59
2022/01/11 22:38:42;;;;;;;51.22;23.48;;;;;;;-4.33;88.74;98503.41;10416056;28;20123;-59
2022/01/11 22:43:41;;;;;;;42.75;18.23;;;;;;;-4.27;88.30;98514.00;10402555;28;20104;-59
2022/01/11 22:48:40;;;;;;;32.83;16.27;;;;;;;-4.23;88.74;98531.16;10400268;28;20064;-59
2022/01/11 22:53:39;;;;;;;;;;;;;;;-4.27;88.29;98520.72;10389061;28;20060;-59
2022/01/11 22:58:38;;;;;;;31.88;14.18;;;;;;;-4.49;88.71;98519.22;10382573;28;19908;-59
2022/01/11 23:03:38;;;;;;;52.08;20.30;;;;;;;-4.46;89.90;98523.63;10413756;28;20572;-59
2022/01/11 23:08:37;;;;;;;41.30;19.63;;;;;;;-4.27;89.06;98521.59;10412149;28;20060;-59
2022/01/11 23:18:39;;;;;;;44.75;18.73;;;;;;;-4.44;88.93;98534.75;10411595;28;20063;-59